Impacts METAR Board INFO
IDs:

KSEA - Seattle-Tacoma Intl, WA, US

Updated at: 1811 UTC 22 Jan 2018
Potential Impact None Slight Moderate High
Time22/06Z 22/07Z 22/08Z 22/09Z 22/10Z 22/11Z 22/12Z 22/13Z 22/14Z 22/15Z 22/16Z 22/17Z 22/18Z
VIS10 10 10 9 7 7 10 6 3 10 10 10 10
CIG-- 55 37 36 25 36 30 32 29 32 100 200 110
CoverSCTBKNOVCOVCOVCOVCBKNOVCOVCOVCBKNBKNBKN
FltCatVFRVFRVFRVFRMVFRVFRMVFRVFRMVFRVFRVFRVFRVFR
WX-------RA-RA-----RA BR-RA BR--------
WDir170180190190210160170180210190180180200
WSpd10 10 13 6 6 7 10 14 13 11 11 12 16
WGst-- -- -- -- -- -- -- -- -- -- -- -- --
Raw hourly METARs
KSEA 220553Z 17010KT 10SM FEW029 SCT070 06/03 A3001 RMK AO2 SLP169 60009 T00610028 10083 20039 53015
KSEA 220653Z 18010KT 10SM SCT037 BKN055 07/03 A3003 RMK AO2 SLP178 T00670028
KSEA 220753Z 19013KT 10SM BKN037 BKN043 OVC050 07/02 A3004 RMK AO2 SLP181 T00670022 401060039
KSEA 220853Z 19006KT 9SM -RA SCT028 BKN036 OVC050 06/04 A3006 RMK AO2 RAB04E19B32 SLP187 P0002 60002 T00560039 51017
KSEA 220953Z 21006KT 7SM -RA OVC025 06/04 A3008 RMK AO2 SLP193 P0005 T00560044
KSEA 221053Z 16007KT 7SM FEW008 SCT026 OVC036 06/04 A3009 RMK AO2 RAE52 SLP198 P0004 T00560044
KSEA 221153Z 17010KT 10SM SCT017 BKN030 06/04 A3010 RMK AO2 SLP200 60011 70022 T00610039 10067 20056 51013
KSEA 221253Z 18014KT 6SM -RA BR FEW017 OVC032 06/04 A3011 RMK AO2 RAB45 SLP204 P0002 T00560039
KSEA 221353Z 21013KT 3SM -RA BR OVC029 05/04 A3013 RMK AO2 SLP212 P0011 T00500039
KSEA 221453Z 19011KT 10SM BKN032 BKN055 OVC065 04/03 A3014 RMK AO2 RAE45 SLP215 P0012 60025 T00440033 52015
KSEA 221553Z 18011KT 10SM FEW009 SCT029 BKN100 04/03 A3015 RMK AO2 SLP220 T00440033
KSEA 221653Z 18012KT 10SM FEW009 SCT025 SCT100 BKN200 05/04 A3019 RMK AO2 SLP231 T00500039
KSEA 221753Z 20016KT 10SM FEW009 SCT024 BKN110 BKN200 06/04 A3022 RMK AO2 SLP240 60025 T00610039 10061 20044 53025